sensor_id;sensor_type;location;lat;lon;timestamp;temperature;humidity
11426;DHT22;5769;47.998;7.788;2022-09-24T00:00:46;18.30;68.90
11426;DHT22;5769;47.998;7.788;2022-09-24T00:03:17;18.30;69.80
11426;DHT22;5769;47.998;7.788;2022-09-24T00:05:44;18.30;68.90
11426;DHT22;5769;47.998;7.788;2022-09-24T00:08:12;18.30;69.00
11426;DHT22;5769;47.998;7.788;2022-09-24T00:10:41;18.40;69.10
11426;DHT22;5769;47.998;7.788;2022-09-24T00:13:10;18.30;68.90
11426;DHT22;5769;47.998;7.788;2022-09-24T00:15:40;18.30;68.70
11426;DHT22;5769;47.998;7.788;2022-09-24T00:18:07;18.30;69.00
11426;DHT22;5769;47.998;7.788;2022-09-24T00:20:35;18.40;68.90
11426;DHT22;5769;47.998;7.788;2022-09-24T00:23:02;18.30;69.80
11426;DHT22;5769;47.998;7.788;2022-09-24T00:25:28;18.30;69.20
11426;DHT22;5769;47.998;7.788;2022-09-24T00:28:13;18.30;69.10
11426;DHT22;5769;47.998;7.788;2022-09-24T00:30:43;18.30;69.00
11426;DHT22;5769;47.998;7.788;2022-09-24T00:33:10;18.30;68.70
11426;DHT22;5769;47.998;7.788;2022-09-24T00:35:37;18.30;69.00
11426;DHT22;5769;47.998;7.788;2022-09-24T00:38:05;18.30;69.50
11426;DHT22;5769;47.998;7.788;2022-09-24T00:40:34;18.30;69.00
11426;DHT22;5769;47.998;7.788;2022-09-24T00:45:45;18.30;69.60
11426;DHT22;5769;47.998;7.788;2022-09-24T00:48:12;18.30;69.30
11426;DHT22;5769;47.998;7.788;2022-09-24T00:50:39;18.30;69.50
11426;DHT22;5769;47.998;7.788;2022-09-24T00:53:09;18.30;69.60
11426;DHT22;5769;47.998;7.788;2022-09-24T00:55:37;18.30;69.90
11426;DHT22;5769;47.998;7.788;2022-09-24T00:58:07;18.30;69.40
11426;DHT22;5769;47.998;7.788;2022-09-24T01:00:36;18.30;69.70
11426;DHT22;5769;47.998;7.788;2022-09-24T01:03:07;18.30;69.80
11426;DHT22;5769;47.998;7.788;2022-09-24T01:05:35;18.30;69.20
11426;DHT22;5769;47.998;7.788;2022-09-24T01:08:02;18.30;69.20
11426;DHT22;5769;47.998;7.788;2022-09-24T01:10:39;18.30;69.60
11426;DHT22;5769;47.998;7.788;2022-09-24T01:13:28;18.30;69.10
11426;DHT22;5769;47.998;7.788;2022-09-24T01:16:03;18.30;69.20
11426;DHT22;5769;47.998;7.788;2022-09-24T01:18:39;18.30;69.30
11426;DHT22;5769;47.998;7.788;2022-09-24T01:21:20;18.30;69.20
11426;DHT22;5769;47.998;7.788;2022-09-24T01:24:24;18.30;69.00
11426;DHT22;5769;47.998;7.788;2022-09-24T01:27:00;18.30;69.00
11426;DHT22;5769;47.998;7.788;2022-09-24T01:29:34;18.30;68.90
11426;DHT22;5769;47.998;7.788;2022-09-24T01:32:10;18.30;68.70
11426;DHT22;5769;47.998;7.788;2022-09-24T01:34:41;18.30;68.50
11426;DHT22;5769;47.998;7.788;2022-09-24T01:37:11;18.30;68.40
11426;DHT22;5769;47.998;7.788;2022-09-24T01:39:41;18.30;68.60
11426;DHT22;5769;47.998;7.788;2022-09-24T01:42:10;18.30;68.40
11426;DHT22;5769;47.998;7.788;2022-09-24T01:44:39;18.30;68.50
11426;DHT22;5769;47.998;7.788;2022-09-24T01:47:07;18.30;68.30
11426;DHT22;5769;47.998;7.788;2022-09-24T01:49:35;18.30;68.40
11426;DHT22;5769;47.998;7.788;2022-09-24T01:52:05;18.30;68.80
11426;DHT22;5769;47.998;7.788;2022-09-24T01:54:38;18.30;68.80
11426;DHT22;5769;47.998;7.788;2022-09-24T01:57:11;18.30;68.80
11426;DHT22;5769;47.998;7.788;2022-09-24T01:59:44;18.30;69.00
11426;DHT22;5769;47.998;7.788;2022-09-24T02:02:19;18.30;69.00
11426;DHT22;5769;47.998;7.788;2022-09-24T02:04:52;18.30;69.20
11426;DHT22;5769;47.998;7.788;2022-09-24T02:07:25;18.30;69.90
11426;DHT22;5769;47.998;7.788;2022-09-24T02:09:55;18.30;69.60
11426;DHT22;5769;47.998;7.788;2022-09-24T02:12:24;18.30;69.80
11426;DHT22;5769;47.998;7.788;2022-09-24T02:14:58;18.30;70.70
11426;DHT22;5769;47.998;7.788;2022-09-24T02:17:29;18.30;69.60
11426;DHT22;5769;47.998;7.788;2022-09-24T02:20:00;18.30;69.70
11426;DHT22;5769;47.998;7.788;2022-09-24T02:22:28;18.30;70.00
11426;DHT22;5769;47.998;7.788;2022-09-24T02:24:57;18.30;69.90
11426;DHT22;5769;47.998;7.788;2022-09-24T02:27:25;18.30;70.40
11426;DHT22;5769;47.998;7.788;2022-09-24T02:29:54;18.30;70.40
11426;DHT22;5769;47.998;7.788;2022-09-24T02:32:22;18.30;71.00
11426;DHT22;5769;47.998;7.788;2022-09-24T02:34:53;18.30;71.10
11426;DHT22;5769;47.998;7.788;2022-09-24T02:37:22;18.30;71.10
11426;DHT22;5769;47.998;7.788;2022-09-24T02:39:50;18.30;71.60
11426;DHT22;5769;47.998;7.788;2022-09-24T02:42:18;18.30;71.70
11426;DHT22;5769;47.998;7.788;2022-09-24T02:44:46;18.30;72.10
11426;DHT22;5769;47.998;7.788;2022-09-24T02:47:14;18.30;72.40
11426;DHT22;5769;47.998;7.788;2022-09-24T02:49:41;18.30;72.20
11426;DHT22;5769;47.998;7.788;2022-09-24T02:52:08;18.30;72.90
11426;DHT22;5769;47.998;7.788;2022-09-24T02:54:34;18.30;73.20
11426;DHT22;5769;47.998;7.788;2022-09-24T02:57:01;18.30;72.40
11426;DHT22;5769;47.998;7.788;2022-09-24T02:59:28;18.30;72.40
11426;DHT22;5769;47.998;7.788;2022-09-24T03:01:55;18.30;73.60
11426;DHT22;5769;47.998;7.788;2022-09-24T03:04:23;18.30;74.30
11426;DHT22;5769;47.998;7.788;2022-09-24T03:06:50;18.30;73.00
11426;DHT22;5769;47.998;7.788;2022-09-24T03:09:17;18.30;74.40
11426;DHT22;5769;47.998;7.788;2022-09-24T03:11:44;18.30;75.70
11426;DHT22;5769;47.998;7.788;2022-09-24T03:14:11;18.30;77.00
11426;DHT22;5769;47.998;7.788;2022-09-24T03:16:38;18.30;76.90
11426;DHT22;5769;47.998;7.788;2022-09-24T03:19:05;18.30;76.60
11426;DHT22;5769;47.998;7.788;2022-09-24T03:21:33;18.30;77.50
11426;DHT22;5769;47.998;7.788;2022-09-24T03:24:00;18.30;77.70
11426;DHT22;5769;47.998;7.788;2022-09-24T03:26:28;18.30;78.10
11426;DHT22;5769;47.998;7.788;2022-09-24T03:28:55;18.30;78.40
11426;DHT22;5769;47.998;7.788;2022-09-24T03:31:22;18.30;78.50
11426;DHT22;5769;47.998;7.788;2022-09-24T03:33:49;18.30;78.80
11426;DHT22;5769;47.998;7.788;2022-09-24T03:36:17;18.30;78.90
11426;DHT22;5769;47.998;7.788;2022-09-24T03:38:47;18.30;79.10
11426;DHT22;5769;47.998;7.788;2022-09-24T03:41:15;18.30;79.00
11426;DHT22;5769;47.998;7.788;2022-09-24T03:43:42;18.30;79.20
11426;DHT22;5769;47.998;7.788;2022-09-24T03:46:10;18.30;79.00
11426;DHT22;5769;47.998;7.788;2022-09-24T03:48:38;18.30;78.00
11426;DHT22;5769;47.998;7.788;2022-09-24T03:51:09;18.30;77.10
11426;DHT22;5769;47.998;7.788;2022-09-24T03:53:37;18.30;78.70
11426;DHT22;5769;47.998;7.788;2022-09-24T03:56:06;18.30;76.20
11426;DHT22;5769;47.998;7.788;2022-09-24T03:58:34;18.30;75.10
11426;DHT22;5769;47.998;7.788;2022-09-24T04:01:03;18.30;74.60
11426;DHT22;5769;47.998;7.788;2022-09-24T04:03:30;18.30;74.40
11426;DHT22;5769;47.998;7.788;2022-09-24T04:05:57;18.30;74.50
11426;DHT22;5769;47.998;7.788;2022-09-24T04:08:24;18.30;74.60
11426;DHT22;5769;47.998;7.788;2022-09-24T04:10:51;18.30;74.30
11426;DHT22;5769;47.998;7.788;2022-09-24T04:13:21;18.30;74.10
11426;DHT22;5769;47.998;7.788;2022-09-24T04:15:48;18.30;74.40
11426;DHT22;5769;47.998;7.788;2022-09-24T04:18:16;18.30;74.50
11426;DHT22;5769;47.998;7.788;2022-09-24T04:20:43;18.30;74.90
11426;DHT22;5769;47.998;7.788;2022-09-24T04:23:10;18.30;75.00
11426;DHT22;5769;47.998;7.788;2022-09-24T04:25:37;18.30;74.60
11426;DHT22;5769;47.998;7.788;2022-09-24T04:28:06;18.30;74.50
11426;DHT22;5769;47.998;7.788;2022-09-24T04:30:36;18.40;74.80
11426;DHT22;5769;47.998;7.788;2022-09-24T04:33:03;18.30;75.10
11426;DHT22;5769;47.998;7.788;2022-09-24T04:35:32;18.30;74.30
11426;DHT22;5769;47.998;7.788;2022-09-24T04:38:01;18.30;74.00
11426;DHT22;5769;47.998;7.788;2022-09-24T04:40:28;18.30;74.50
11426;DHT22;5769;47.998;7.788;2022-09-24T04:42:55;18.30;74.10
11426;DHT22;5769;47.998;7.788;2022-09-24T04:45:22;18.30;74.10
11426;DHT22;5769;47.998;7.788;2022-09-24T04:47:51;18.30;74.10
11426;DHT22;5769;47.998;7.788;2022-09-24T04:50:20;18.30;74.60
11426;DHT22;5769;47.998;7.788;2022-09-24T04:52:47;18.30;74.10
11426;DHT22;5769;47.998;7.788;2022-09-24T04:55:14;18.30;74.20
11426;DHT22;5769;47.998;7.788;2022-09-24T04:57:41;18.30;74.80
11426;DHT22;5769;47.998;7.788;2022-09-24T05:00:12;18.30;74.30
11426;DHT22;5769;47.998;7.788;2022-09-24T05:02:40;18.30;74.20
11426;DHT22;5769;47.998;7.788;2022-09-24T05:05:10;18.30;74.30
11426;DHT22;5769;47.998;7.788;2022-09-24T05:07:37;18.30;74.70
11426;DHT22;5769;47.998;7.788;2022-09-24T05:10:05;18.30;74.00
11426;DHT22;5769;47.998;7.788;2022-09-24T05:12:32;18.30;74.20
11426;DHT22;5769;47.998;7.788;2022-09-24T05:14:59;18.30;74.90
11426;DHT22;5769;47.998;7.788;2022-09-24T05:17:26;18.30;74.50
11426;DHT22;5769;47.998;7.788;2022-09-24T05:19:53;18.30;75.10
11426;DHT22;5769;47.998;7.788;2022-09-24T05:22:23;18.30;74.40
11426;DHT22;5769;47.998;7.788;2022-09-24T05:24:52;18.30;74.60
11426;DHT22;5769;47.998;7.788;2022-09-24T05:27:18;18.40;76.00
11426;DHT22;5769;47.998;7.788;2022-09-24T05:29:46;18.30;75.70
11426;DHT22;5769;47.998;7.788;2022-09-24T05:32:15;18.40;75.00
11426;DHT22;5769;47.998;7.788;2022-09-24T05:34:42;18.30;75.20
11426;DHT22;5769;47.998;7.788;2022-09-24T05:37:10;18.30;74.50
11426;DHT22;5769;47.998;7.788;2022-09-24T05:39:39;18.30;74.80
11426;DHT22;5769;47.998;7.788;2022-09-24T05:42:08;18.30;75.60
11426;DHT22;5769;47.998;7.788;2022-09-24T05:44:35;18.30;75.90
11426;DHT22;5769;47.998;7.788;2022-09-24T05:47:02;18.30;75.30
11426;DHT22;5769;47.998;7.788;2022-09-24T05:49:29;18.40;75.60
11426;DHT22;5769;47.998;7.788;2022-09-24T05:51:56;18.30;76.00
11426;DHT22;5769;47.998;7.788;2022-09-24T05:54:23;18.30;75.30
11426;DHT22;5769;47.998;7.788;2022-09-24T05:56:51;18.30;75.80
11426;DHT22;5769;47.998;7.788;2022-09-24T05:59:18;18.30;75.60
11426;DHT22;5769;47.998;7.788;2022-09-24T06:01:45;18.30;75.20
11426;DHT22;5769;47.998;7.788;2022-09-24T06:04:12;18.30;76.10
11426;DHT22;5769;47.998;7.788;2022-09-24T06:06:40;18.30;75.30
11426;DHT22;5769;47.998;7.788;2022-09-24T06:09:08;18.30;75.50
11426;DHT22;5769;47.998;7.788;2022-09-24T06:11:35;18.30;75.30
11426;DHT22;5769;47.998;7.788;2022-09-24T06:14:04;18.30;75.50
11426;DHT22;5769;47.998;7.788;2022-09-24T06:16:32;18.40;75.10
11426;DHT22;5769;47.998;7.788;2022-09-24T06:18:59;18.30;75.70
11426;DHT22;5769;47.998;7.788;2022-09-24T06:21:25;18.30;77.60
11426;DHT22;5769;47.998;7.788;2022-09-24T06:23:52;18.40;75.80
11426;DHT22;5769;47.998;7.788;2022-09-24T06:26:19;18.30;75.20
11426;DHT22;5769;47.998;7.788;2022-09-24T06:28:46;18.30;75.50
11426;DHT22;5769;47.998;7.788;2022-09-24T06:31:14;18.40;75.60
11426;DHT22;5769;47.998;7.788;2022-09-24T06:33:41;18.40;75.60
11426;DHT22;5769;47.998;7.788;2022-09-24T06:36:07;18.30;77.00
11426;DHT22;5769;47.998;7.788;2022-09-24T06:38:35;18.30;75.80
11426;DHT22;5769;47.998;7.788;2022-09-24T06:41:04;18.40;75.40
11426;DHT22;5769;47.998;7.788;2022-09-24T06:43:33;18.30;77.80
11426;DHT22;5769;47.998;7.788;2022-09-24T06:46:00;18.30;79.60
11426;DHT22;5769;47.998;7.788;2022-09-24T06:48:29;18.30;80.00
11426;DHT22;5769;47.998;7.788;2022-09-24T06:50:56;18.40;80.40
11426;DHT22;5769;47.998;7.788;2022-09-24T06:53:23;18.40;80.60
11426;DHT22;5769;47.998;7.788;2022-09-24T06:55:50;18.30;80.60
11426;DHT22;5769;47.998;7.788;2022-09-24T06:58:19;18.40;80.70
11426;DHT22;5769;47.998;7.788;2022-09-24T07:00:51;18.40;80.80
11426;DHT22;5769;47.998;7.788;2022-09-24T07:03:19;18.40;81.70
11426;DHT22;5769;47.998;7.788;2022-09-24T07:05:47;18.40;81.20
11426;DHT22;5769;47.998;7.788;2022-09-24T07:08:14;18.30;81.90
11426;DHT22;5769;47.998;7.788;2022-09-24T07:10:42;18.40;81.30
11426;DHT22;5769;47.998;7.788;2022-09-24T07:13:10;18.40;81.40
11426;DHT22;5769;47.998;7.788;2022-09-24T07:15:37;18.40;81.40
11426;DHT22;5769;47.998;7.788;2022-09-24T07:18:04;18.40;81.50
11426;DHT22;5769;47.998;7.788;2022-09-24T07:20:31;18.40;81.60
11426;DHT22;5769;47.998;7.788;2022-09-24T07:23:00;18.40;81.80
11426;DHT22;5769;47.998;7.788;2022-09-24T07:25:27;18.40;81.90
11426;DHT22;5769;47.998;7.788;2022-09-24T07:27:53;18.40;82.00
11426;DHT22;5769;47.998;7.788;2022-09-24T07:30:20;18.40;81.90
11426;DHT22;5769;47.998;7.788;2022-09-24T07:32:47;18.40;82.00
11426;DHT22;5769;47.998;7.788;2022-09-24T07:35:19;18.40;82.20
11426;DHT22;5769;47.998;7.788;2022-09-24T07:37:46;18.40;82.20
11426;DHT22;5769;47.998;7.788;2022-09-24T07:40:14;18.40;82.30
11426;DHT22;5769;47.998;7.788;2022-09-24T07:42:46;18.40;82.30
11426;DHT22;5769;47.998;7.788;2022-09-24T07:45:13;18.40;82.40
11426;DHT22;5769;47.998;7.788;2022-09-24T07:47:41;18.40;82.40
11426;DHT22;5769;47.998;7.788;2022-09-24T07:50:08;18.40;82.50
11426;DHT22;5769;47.998;7.788;2022-09-24T07:52:36;18.40;82.60
11426;DHT22;5769;47.998;7.788;2022-09-24T07:55:03;18.40;82.60
11426;DHT22;5769;47.998;7.788;2022-09-24T07:57:32;18.40;82.90
11426;DHT22;5769;47.998;7.788;2022-09-24T07:59:58;18.40;82.90
11426;DHT22;5769;47.998;7.788;2022-09-24T08:02:25;18.40;83.20
11426;DHT22;5769;47.998;7.788;2022-09-24T08:04:52;18.40;83.10
11426;DHT22;5769;47.998;7.788;2022-09-24T08:07:19;18.40;83.30
11426;DHT22;5769;47.998;7.788;2022-09-24T08:09:45;18.40;83.30
11426;DHT22;5769;47.998;7.788;2022-09-24T08:12:12;18.40;83.30
11426;DHT22;5769;47.998;7.788;2022-09-24T08:14:40;18.40;83.40
11426;DHT22;5769;47.998;7.788;2022-09-24T08:17:07;18.40;83.40
11426;DHT22;5769;47.998;7.788;2022-09-24T08:19:34;18.40;83.60
11426;DHT22;5769;47.998;7.788;2022-09-24T08:22:01;18.40;83.60
11426;DHT22;5769;47.998;7.788;2022-09-24T08:24:29;18.40;83.70
11426;DHT22;5769;47.998;7.788;2022-09-24T08:26:57;18.40;83.90
11426;DHT22;5769;47.998;7.788;2022-09-24T08:29:24;18.40;84.00
11426;DHT22;5769;47.998;7.788;2022-09-24T08:31:52;18.40;84.20
11426;DHT22;5769;47.998;7.788;2022-09-24T08:34:19;18.40;84.10
11426;DHT22;5769;47.998;7.788;2022-09-24T08:36:46;18.40;84.20
11426;DHT22;5769;47.998;7.788;2022-09-24T08:39:13;18.40;84.20
11426;DHT22;5769;47.998;7.788;2022-09-24T08:41:51;18.40;84.30
11426;DHT22;5769;47.998;7.788;2022-09-24T08:44:25;18.50;84.20
11426;DHT22;5769;47.998;7.788;2022-09-24T08:47:33;18.40;84.00
11426;DHT22;5769;47.998;7.788;2022-09-24T08:50:07;18.40;84.30
11426;DHT22;5769;47.998;7.788;2022-09-24T08:52:58;18.50;84.90
11426;DHT22;5769;47.998;7.788;2022-09-24T08:55:32;18.50;84.30
11426;DHT22;5769;47.998;7.788;2022-09-24T08:58:07;18.50;84.40
11426;DHT22;5769;47.998;7.788;2022-09-24T09:00:41;18.50;84.30
11426;DHT22;5769;47.998;7.788;2022-09-24T09:03:16;18.40;84.40
11426;DHT22;5769;47.998;7.788;2022-09-24T09:05:53;18.50;84.40
11426;DHT22;5769;47.998;7.788;2022-09-24T09:08:30;18.50;84.60
11426;DHT22;5769;47.998;7.788;2022-09-24T09:11:01;18.50;84.50
11426;DHT22;5769;47.998;7.788;2022-09-24T09:13:31;18.50;84.50
11426;DHT22;5769;47.998;7.788;2022-09-24T09:16:04;18.50;84.60
11426;DHT22;5769;47.998;7.788;2022-09-24T09:18:35;18.50;84.70
11426;DHT22;5769;47.998;7.788;2022-09-24T09:21:12;18.50;84.60
11426;DHT22;5769;47.998;7.788;2022-09-24T09:23:45;18.50;84.70
11426;DHT22;5769;47.998;7.788;2022-09-24T09:26:13;18.50;84.60
11426;DHT22;5769;47.998;7.788;2022-09-24T09:28:41;18.50;84.80
11426;DHT22;5769;47.998;7.788;2022-09-24T09:31:17;18.50;84.80
11426;DHT22;5769;47.998;7.788;2022-09-24T09:33:59;18.50;84.80
11426;DHT22;5769;47.998;7.788;2022-09-24T09:36:42;18.50;84.80
11426;DHT22;5769;47.998;7.788;2022-09-24T09:39:21;18.50;84.50
11426;DHT22;5769;47.998;7.788;2022-09-24T09:41:56;18.50;84.60
11426;DHT22;5769;47.998;7.788;2022-09-24T09:44:28;18.50;84.50
11426;DHT22;5769;47.998;7.788;2022-09-24T09:47:03;18.50;84.50
11426;DHT22;5769;47.998;7.788;2022-09-24T09:49:34;18.50;84.50
11426;DHT22;5769;47.998;7.788;2022-09-24T09:52:10;18.40;84.30
11426;DHT22;5769;47.998;7.788;2022-09-24T09:54:39;18.50;84.30
11426;DHT22;5769;47.998;7.788;2022-09-24T09:57:12;18.50;84.40
11426;DHT22;5769;47.998;7.788;2022-09-24T09:59:45;18.50;84.60
11426;DHT22;5769;47.998;7.788;2022-09-24T10:02:21;18.50;84.50
11426;DHT22;5769;47.998;7.788;2022-09-24T10:04:53;18.50;84.70
11426;DHT22;5769;47.998;7.788;2022-09-24T10:07:21;18.50;84.60
11426;DHT22;5769;47.998;7.788;2022-09-24T10:10:01;18.50;84.50
11426;DHT22;5769;47.998;7.788;2022-09-24T10:12:29;18.50;84.40
11426;DHT22;5769;47.998;7.788;2022-09-24T10:15:00;18.50;84.30
11426;DHT22;5769;47.998;7.788;2022-09-24T10:17:30;18.50;84.10
11426;DHT22;5769;47.998;7.788;2022-09-24T10:20:05;18.50;84.20
11426;DHT22;5769;47.998;7.788;2022-09-24T10:22:34;18.50;84.20
11426;DHT22;5769;47.998;7.788;2022-09-24T10:25:03;18.50;84.30
11426;DHT22;5769;47.998;7.788;2022-09-24T10:27:33;18.50;84.30
11426;DHT22;5769;47.998;7.788;2022-09-24T10:30:01;18.50;84.50
11426;DHT22;5769;47.998;7.788;2022-09-24T10:32:46;18.50;84.20
11426;DHT22;5769;47.998;7.788;2022-09-24T10:35:25;18.50;84.20
11426;DHT22;5769;47.998;7.788;2022-09-24T10:37:53;18.50;84.30
11426;DHT22;5769;47.998;7.788;2022-09-24T10:40:22;18.50;84.30
11426;DHT22;5769;47.998;7.788;2022-09-24T10:42:59;18.50;84.30
11426;DHT22;5769;47.998;7.788;2022-09-24T10:48:35;18.50;84.20
11426;DHT22;5769;47.998;7.788;2022-09-24T10:51:15;18.50;84.10
11426;DHT22;5769;47.998;7.788;2022-09-24T10:53:53;18.50;84.20
11426;DHT22;5769;47.998;7.788;2022-09-24T10:56:28;18.50;83.90
11426;DHT22;5769;47.998;7.788;2022-09-24T10:59:24;18.50;84.30
11426;DHT22;5769;47.998;7.788;2022-09-24T11:02:04;18.50;84.00
11426;DHT22;5769;47.998;7.788;2022-09-24T11:04:46;18.50;84.00
11426;DHT22;5769;47.998;7.788;2022-09-24T11:08:03;18.50;83.90
11426;DHT22;5769;47.998;7.788;2022-09-24T11:10:51;18.50;83.40
11426;DHT22;5769;47.998;7.788;2022-09-24T11:13:30;18.50;82.80
11426;DHT22;5769;47.998;7.788;2022-09-24T11:16:25;18.50;83.60
11426;DHT22;5769;47.998;7.788;2022-09-24T11:18:57;18.50;83.70
11426;DHT22;5769;47.998;7.788;2022-09-24T11:21:42;18.50;83.60
11426;DHT22;5769;47.998;7.788;2022-09-24T11:24:30;18.50;83.70
11426;DHT22;5769;47.998;7.788;2022-09-24T11:27:16;18.50;83.70
11426;DHT22;5769;47.998;7.788;2022-09-24T11:30:05;18.50;83.70
11426;DHT22;5769;47.998;7.788;2022-09-24T11:32:40;18.50;83.90
11426;DHT22;5769;47.998;7.788;2022-09-24T11:35:28;18.50;83.60
11426;DHT22;5769;47.998;7.788;2022-09-24T11:38:00;18.50;83.40
11426;DHT22;5769;47.998;7.788;2022-09-24T11:40:43;18.50;82.80
11426;DHT22;5769;47.998;7.788;2022-09-24T11:43:39;18.50;82.30
11426;DHT22;5769;47.998;7.788;2022-09-24T11:46:21;18.50;82.40
11426;DHT22;5769;47.998;7.788;2022-09-24T11:49:04;18.60;82.30
11426;DHT22;5769;47.998;7.788;2022-09-24T11:51:48;18.50;82.30
11426;DHT22;5769;47.998;7.788;2022-09-24T11:54:22;18.60;82.20
11426;DHT22;5769;47.998;7.788;2022-09-24T11:56:55;18.50;82.40
11426;DHT22;5769;47.998;7.788;2022-09-24T11:59:32;18.50;82.30
11426;DHT22;5769;47.998;7.788;2022-09-24T12:02:03;18.50;82.30
11426;DHT22;5769;47.998;7.788;2022-09-24T12:04:43;18.50;82.20
11426;DHT22;5769;47.998;7.788;2022-09-24T12:07:15;18.50;82.20
11426;DHT22;5769;47.998;7.788;2022-09-24T12:09:48;18.50;82.10
11426;DHT22;5769;47.998;7.788;2022-09-24T12:12:21;18.60;82.10
11426;DHT22;5769;47.998;7.788;2022-09-24T12:14:53;18.50;81.70
11426;DHT22;5769;47.998;7.788;2022-09-24T12:17:26;18.50;82.00
11426;DHT22;5769;47.998;7.788;2022-09-24T12:19:57;18.60;81.90
11426;DHT22;5769;47.998;7.788;2022-09-24T12:22:26;18.60;81.60
11426;DHT22;5769;47.998;7.788;2022-09-24T12:24:56;18.60;81.40
11426;DHT22;5769;47.998;7.788;2022-09-24T12:27:32;18.60;81.70
11426;DHT22;5769;47.998;7.788;2022-09-24T12:30:04;18.60;81.70
11426;DHT22;5769;47.998;7.788;2022-09-24T12:32:52;18.60;81.40
11426;DHT22;5769;47.998;7.788;2022-09-24T12:35:40;18.60;81.30
11426;DHT22;5769;47.998;7.788;2022-09-24T12:38:13;18.60;81.00
11426;DHT22;5769;47.998;7.788;2022-09-24T12:43:49;18.60;81.20
11426;DHT22;5769;47.998;7.788;2022-09-24T12:46:20;18.60;81.10
11426;DHT22;5769;47.998;7.788;2022-09-24T12:48:48;18.60;80.90
11426;DHT22;5769;47.998;7.788;2022-09-24T12:51:16;18.60;81.00
11426;DHT22;5769;47.998;7.788;2022-09-24T12:53:56;18.60;80.80
11426;DHT22;5769;47.998;7.788;2022-09-24T12:56:24;18.60;80.80
11426;DHT22;5769;47.998;7.788;2022-09-24T12:58:53;18.60;80.80
11426;DHT22;5769;47.998;7.788;2022-09-24T13:01:29;18.60;80.80
11426;DHT22;5769;47.998;7.788;2022-09-24T13:04:25;18.60;81.70
11426;DHT22;5769;47.998;7.788;2022-09-24T13:06:52;18.60;80.80
11426;DHT22;5769;47.998;7.788;2022-09-24T13:09:34;18.60;80.80
11426;DHT22;5769;47.998;7.788;2022-09-24T13:14:51;18.60;80.90
11426;DHT22;5769;47.998;7.788;2022-09-24T13:17:21;18.60;80.70
11426;DHT22;5769;47.998;7.788;2022-09-24T13:19:49;18.60;80.70
11426;DHT22;5769;47.998;7.788;2022-09-24T13:22:25;18.60;80.50
11426;DHT22;5769;47.998;7.788;2022-09-24T13:24:53;18.60;80.30
11426;DHT22;5769;47.998;7.788;2022-09-24T13:27:34;18.60;80.30
11426;DHT22;5769;47.998;7.788;2022-09-24T13:30:15;18.60;80.10
11426;DHT22;5769;47.998;7.788;2022-09-24T13:32:48;18.60;80.80
11426;DHT22;5769;47.998;7.788;2022-09-24T13:35:19;18.60;80.10
11426;DHT22;5769;47.998;7.788;2022-09-24T13:37:52;18.60;80.20
11426;DHT22;5769;47.998;7.788;2022-09-24T13:40:23;18.60;80.20
11426;DHT22;5769;47.998;7.788;2022-09-24T13:42:57;18.60;80.10
11426;DHT22;5769;47.998;7.788;2022-09-24T13:45:27;18.60;80.10
11426;DHT22;5769;47.998;7.788;2022-09-24T13:47:56;18.60;80.00
11426;DHT22;5769;47.998;7.788;2022-09-24T13:50:26;18.60;79.90
11426;DHT22;5769;47.998;7.788;2022-09-24T13:52:56;18.60;79.80
11426;DHT22;5769;47.998;7.788;2022-09-24T13:55:27;18.60;79.70
11426;DHT22;5769;47.998;7.788;2022-09-24T13:57:57;18.60;79.50
11426;DHT22;5769;47.998;7.788;2022-09-24T14:00:26;18.60;79.40
11426;DHT22;5769;47.998;7.788;2022-09-24T14:02:56;18.60;79.20
11426;DHT22;5769;47.998;7.788;2022-09-24T14:05:25;18.60;79.10
11426;DHT22;5769;47.998;7.788;2022-09-24T14:08:00;18.60;78.90
11426;DHT22;5769;47.998;7.788;2022-09-24T14:10:29;18.60;78.80
11426;DHT22;5769;47.998;7.788;2022-09-24T14:13:00;18.60;78.70
11426;DHT22;5769;47.998;7.788;2022-09-24T14:15:28;18.60;78.60
11426;DHT22;5769;47.998;7.788;2022-09-24T14:17:56;18.60;78.60
11426;DHT22;5769;47.998;7.788;2022-09-24T14:20:24;18.60;78.50
11426;DHT22;5769;47.998;7.788;2022-09-24T14:22:52;18.60;78.50
11426;DHT22;5769;47.998;7.788;2022-09-24T14:25:25;18.60;78.40
11426;DHT22;5769;47.998;7.788;2022-09-24T14:27:53;18.60;78.40
11426;DHT22;5769;47.998;7.788;2022-09-24T14:30:22;18.60;78.40
11426;DHT22;5769;47.998;7.788;2022-09-24T14:32:53;18.60;79.10
11426;DHT22;5769;47.998;7.788;2022-09-24T14:35:28;18.60;79.10
11426;DHT22;5769;47.998;7.788;2022-09-24T14:38:00;18.60;78.50
11426;DHT22;5769;47.998;7.788;2022-09-24T14:40:29;18.70;78.50
11426;DHT22;5769;47.998;7.788;2022-09-24T14:42:58;18.60;78.40
11426;DHT22;5769;47.998;7.788;2022-09-24T14:45:30;18.70;78.50
11426;DHT22;5769;47.998;7.788;2022-09-24T14:48:01;18.70;78.40
11426;DHT22;5769;47.998;7.788;2022-09-24T14:50:32;18.70;78.40
11426;DHT22;5769;47.998;7.788;2022-09-24T14:53:11;18.60;78.30
11426;DHT22;5769;47.998;7.788;2022-09-24T14:55:40;18.70;78.30
11426;DHT22;5769;47.998;7.788;2022-09-24T14:58:30;18.70;78.20
11426;DHT22;5769;47.998;7.788;2022-09-24T15:00:58;18.70;78.20
11426;DHT22;5769;47.998;7.788;2022-09-24T15:03:36;18.60;78.10
11426;DHT22;5769;47.998;7.788;2022-09-24T15:06:06;18.70;78.00
11426;DHT22;5769;47.998;7.788;2022-09-24T15:08:33;18.70;77.90
11426;DHT22;5769;47.998;7.788;2022-09-24T15:11:02;18.70;77.90
11426;DHT22;5769;47.998;7.788;2022-09-24T15:13:30;18.70;77.80
11426;DHT22;5769;47.998;7.788;2022-09-24T15:16:02;18.70;77.70
11426;DHT22;5769;47.998;7.788;2022-09-24T15:18:31;18.70;77.60
11426;DHT22;5769;47.998;7.788;2022-09-24T15:20:59;18.60;77.50
11426;DHT22;5769;47.998;7.788;2022-09-24T15:23:27;18.60;77.30
11426;DHT22;5769;47.998;7.788;2022-09-24T15:25:54;18.60;77.30
11426;DHT22;5769;47.998;7.788;2022-09-24T15:28:21;18.60;76.70
11426;DHT22;5769;47.998;7.788;2022-09-24T15:30:51;18.60;76.60
11426;DHT22;5769;47.998;7.788;2022-09-24T15:33:18;18.60;76.30
11426;DHT22;5769;47.998;7.788;2022-09-24T15:35:46;18.60;75.90
11426;DHT22;5769;47.998;7.788;2022-09-24T15:38:14;18.60;75.70
11426;DHT22;5769;47.998;7.788;2022-09-24T15:40:42;18.60;75.80
11426;DHT22;5769;47.998;7.788;2022-09-24T15:43:17;18.60;75.80
11426;DHT22;5769;47.998;7.788;2022-09-24T15:45:44;18.60;76.00
11426;DHT22;5769;47.998;7.788;2022-09-24T15:48:11;18.60;76.20
11426;DHT22;5769;47.998;7.788;2022-09-24T15:50:38;18.60;76.70
11426;DHT22;5769;47.998;7.788;2022-09-24T15:53:13;18.60;77.30
11426;DHT22;5769;47.998;7.788;2022-09-24T15:55:41;18.60;77.80
11426;DHT22;5769;47.998;7.788;2022-09-24T15:58:09;18.60;78.10
11426;DHT22;5769;47.998;7.788;2022-09-24T16:00:39;18.60;78.60
11426;DHT22;5769;47.998;7.788;2022-09-24T16:03:14;18.60;78.80
11426;DHT22;5769;47.998;7.788;2022-09-24T16:05:43;18.60;79.20
11426;DHT22;5769;47.998;7.788;2022-09-24T16:08:11;18.60;79.40
11426;DHT22;5769;47.998;7.788;2022-09-24T16:10:38;18.60;79.90
11426;DHT22;5769;47.998;7.788;2022-09-24T16:13:04;18.60;80.30
11426;DHT22;5769;47.998;7.788;2022-09-24T16:15:32;18.60;80.20
11426;DHT22;5769;47.998;7.788;2022-09-24T16:17:59;18.60;80.10
11426;DHT22;5769;47.998;7.788;2022-09-24T16:20:26;18.60;80.40